Overview Statistics Trail Chart Weather Telemetry Raw packets
 

This is the latest recevied weather packets stored in our database for station/object 1NW106. If no packets are shown the sender has not sent any weather packets the latest 10 day(s).

<< 24 25 26 27 28 29 30 >>
Time Temp. Humidity Pressure Rain* Wind** Luminosity Snow
1788025172 24.44° C 99% 1006.8 hPa 31.24 mm - - -
1788024572 25° C 99% 1007.8 hPa 28.96 mm - - -
1788023972 25.56° C 96% 1008.7 hPa 28.7 mm - - -
1788023372 25.56° C 94% 1009.2 hPa 28.7 mm - - -
1788022772 25.56° C 93% 1009.3 hPa 28.7 mm - - -
1788022172 26.11° C 93% 1009.2 hPa 28.7 mm - - -
1788021572 26.11° C 92% 1009.4 hPa 28.7 mm - - -
1788020972 26.11° C 90% 1009.8 hPa 28.7 mm - - -
1788020389 26.11° C 89% 1009.8 hPa 28.7 mm - - -
1788019772 26.11° C 89% 1009.9 hPa 28.7 mm - - -
1788019172 26.11° C 91% 1009.7 hPa 28.7 mm - - -
1788018572 26.11° C 94% 1009.4 hPa 28.7 mm - - -
1788017973 26.11° C 95% 1009.1 hPa 28.7 mm - - -
1788017372 26.11° C 96% 1008.9 hPa 28.7 mm - - -
1788016772 26.11° C 95% 1008.9 hPa 28.7 mm - - -
1788016172 26.11° C 94% 1008.9 hPa 28.7 mm - - -
1788015600 26.11° C 93% 1009 hPa 28.7 mm - - -
1788014972 26.11° C 93% 1008.9 hPa 28.7 mm - - -
1788014372 26.67° C 92% 1008.8 hPa 28.7 mm - - -
1788013771 26.67° C 92% 1008.6 hPa 28.7 mm - - -
1788013171 26.67° C 92% 1008.3 hPa 28.7 mm - - -
1788012572 26.67° C 92% 1008.1 hPa 28.7 mm - - -
1788011972 26.67° C 93% 1007.8 hPa 28.7 mm - - -
1788011371 26.11° C 96% 1007.3 hPa 28.7 mm - - -
1788010771 25.56° C 99% 1006.3 hPa 28.7 mm - - -

* Rain latest hour (hover to see other rain measurements)
** Current wind speed in m/s (hover to see current wind gust speed)